createdAt,value
2017-10-12T00:04:27.315Z,95.30
2017-10-12T00:09:28.425Z,95.30
2017-10-12T00:14:30.270Z,95.30
2017-10-12T00:19:31.334Z,95.30
2017-10-12T00:24:32.377Z,95.30
2017-10-12T00:29:33.459Z,95.30
2017-10-12T00:34:34.549Z,95.30
2017-10-12T00:39:35.637Z,95.30
2017-10-12T00:44:36.722Z,95.30
2017-10-12T00:49:37.797Z,95.30
2017-10-12T00:54:38.891Z,95.30
2017-10-12T00:59:39.972Z,95.20
2017-10-12T01:04:41.065Z,95.20
2017-10-12T01:09:42.170Z,95.10
2017-10-12T01:14:43.246Z,95.00
2017-10-12T01:19:44.365Z,95.00
2017-10-12T01:24:46.170Z,95.00
2017-10-12T01:29:47.283Z,95.00
2017-10-12T01:34:48.371Z,94.90
2017-10-12T01:39:49.446Z,94.90
2017-10-12T01:44:50.506Z,94.80
2017-10-12T01:49:51.595Z,94.80
2017-10-12T01:54:52.662Z,94.80
2017-10-12T01:59:53.733Z,94.70
2017-10-12T02:04:54.806Z,94.60
2017-10-12T02:09:56.641Z,94.70
2017-10-12T02:14:57.721Z,94.70
2017-10-12T02:19:58.821Z,94.60
2017-10-12T02:24:59.933Z,94.60
2017-10-12T02:30:02.099Z,94.60
2017-10-12T02:35:03.121Z,94.50
2017-10-12T02:40:04.181Z,94.60
2017-10-12T02:45:05.226Z,94.60
2017-10-12T02:50:06.320Z,94.60
2017-10-12T02:55:07.398Z,94.60
2017-10-12T03:00:08.449Z,94.60
2017-10-12T03:05:09.526Z,94.60
2017-10-12T03:10:10.612Z,94.70
2017-10-12T03:15:12.410Z,95.00
2017-10-12T03:20:13.521Z,95.00
2017-10-12T03:25:14.593Z,95.00
2017-10-12T03:30:16.402Z,95.20
2017-10-12T03:35:17.505Z,95.10
2017-10-12T03:40:18.617Z,95.20
2017-10-12T03:45:19.690Z,95.10
2017-10-12T03:50:20.767Z,95.10
2017-10-12T03:55:21.841Z,94.90
2017-10-12T04:00:22.927Z,95.00
2017-10-12T04:05:24.709Z,95.20
2017-10-12T04:10:26.501Z,95.20
2017-10-12T04:15:27.590Z,95.20
2017-10-12T04:20:28.665Z,95.20
2017-10-12T04:25:30.340Z,95.20
2017-10-12T04:30:31.400Z,95.20
2017-10-12T04:35:32.453Z,95.20
2017-10-12T04:40:33.514Z,95.20
2017-10-12T04:45:34.569Z,95.10
2017-10-12T04:50:35.628Z,95.20
2017-10-12T04:55:36.680Z,95.20
2017-10-12T05:00:38.112Z,95.20
2017-10-12T05:05:39.168Z,95.20
2017-10-12T05:10:40.253Z,95.20
2017-10-12T05:15:41.355Z,95.20
2017-10-12T05:20:43.196Z,95.30
2017-10-12T05:25:44.264Z,95.30
2017-10-12T05:30:46.808Z,95.30
2017-10-12T05:35:47.870Z,95.30
2017-10-12T05:40:48.978Z,95.30
2017-10-12T05:45:50.050Z,95.30
2017-10-12T05:50:51.854Z,95.40
2017-10-12T05:55:52.941Z,95.20
2017-10-12T06:00:53.993Z,95.20
2017-10-12T06:05:55.042Z,95.20
2017-10-12T06:10:56.217Z,95.20
2017-10-12T06:15:57.294Z,95.30
2017-10-12T06:20:58.349Z,95.30
2017-10-12T06:25:59.409Z,95.30
2017-10-12T06:31:00.469Z,95.60
2017-10-12T06:36:01.546Z,95.80
2017-10-12T06:41:02.624Z,95.80
2017-10-12T06:46:04.428Z,95.60
2017-10-12T06:51:05.548Z,95.60
2017-10-12T06:56:07.390Z,95.70
2017-10-12T07:01:08.508Z,95.70
2017-10-12T07:06:09.600Z,94.70
2017-10-12T07:11:10.712Z,93.20
2017-10-12T07:16:12.536Z,92.60
2017-10-12T07:21:13.643Z,92.70
2017-10-12T07:26:15.470Z,91.60
2017-10-12T07:31:16.545Z,91.60
2017-10-12T07:36:17.621Z,90.00
2017-10-12T07:41:18.699Z,87.50
2017-10-12T07:46:19.771Z,82.10
2017-10-12T07:51:20.863Z,77.80
2017-10-12T07:56:25.060Z,70.70
2017-10-12T08:01:26.179Z,65.60
2017-10-12T08:06:27.272Z,59.70
2017-10-12T08:11:29.088Z,62.90
2017-10-12T08:16:30.192Z,62.80
2017-10-12T08:21:31.265Z,66.20
2017-10-12T08:26:32.339Z,68.20
2017-10-12T08:31:33.446Z,68.20
2017-10-12T08:36:34.561Z,68.80
2017-10-12T08:41:36.409Z,70.50
2017-10-12T08:46:37.483Z,70.40
2017-10-12T08:51:38.602Z,68.90
2017-10-12T08:56:39.885Z,69.40
2017-10-12T09:01:41.725Z,69.20
2017-10-12T09:06:42.839Z,69.20
2017-10-12T09:11:43.919Z,69.10
2017-10-12T09:16:45.724Z,63.70
2017-10-12T09:21:46.795Z,63.70
2017-10-12T09:26:47.922Z,62.40
2017-10-12T09:31:49.038Z,60.60
2017-10-12T09:36:50.149Z,58.20
2017-10-12T09:41:51.282Z,58.10
2017-10-12T09:46:52.385Z,58.40
2017-10-12T09:51:53.515Z,60.90
2017-10-12T09:56:54.613Z,60.70
2017-10-12T10:01:55.734Z,61.10
2017-10-12T10:06:56.855Z,61.20
2017-10-12T10:11:57.982Z,61.60
2017-10-12T10:16:59.391Z,58.80
2017-10-12T10:22:00.497Z,55.80
2017-10-12T10:27:01.558Z,54.50
2017-10-12T10:32:02.655Z,54.30
2017-10-12T10:37:04.470Z,49.90
2017-10-12T10:42:05.576Z,49.90
2017-10-12T10:47:06.644Z,45.90
2017-10-12T10:52:08.490Z,45.20
2017-10-12T10:57:09.618Z,45.10
2017-10-12T11:02:10.704Z,42.10
2017-10-12T11:07:11.770Z,41.40
2017-10-12T11:12:12.876Z,43.00
2017-10-12T11:17:14.482Z,44.80
2017-10-12T11:22:15.553Z,44.80
2017-10-12T11:27:16.633Z,46.40
2017-10-12T11:32:18.419Z,47.30
2017-10-12T11:37:20.232Z,48.30
2017-10-12T11:42:21.369Z,48.40
2017-10-12T11:47:22.472Z,45.60
2017-10-12T11:52:23.546Z,46.20
2017-10-12T11:57:25.618Z,46.80
2017-10-12T12:02:27.483Z,47.90
2017-10-12T12:07:28.544Z,47.90
2017-10-12T12:12:29.653Z,47.70
2017-10-12T12:17:31.469Z,48.30
2017-10-12T12:22:32.536Z,48.20
2017-10-12T12:27:33.633Z,47.30
2017-10-12T12:32:34.706Z,44.90
2017-10-12T12:37:35.800Z,42.80
2017-10-12T12:42:36.873Z,44.30
2017-10-12T12:47:37.930Z,46.80
2017-10-12T12:52:39.038Z,47.20
2017-10-12T12:57:40.881Z,46.70
2017-10-12T13:02:41.964Z,46.70
2017-10-12T13:07:43.781Z,47.80
2017-10-12T13:12:44.875Z,47.10
2017-10-12T13:17:46.174Z,46.90
2017-10-12T13:22:48.006Z,41.40
2017-10-12T13:27:49.964Z,41.40
2017-10-12T13:32:51.039Z,40.90
2017-10-12T13:37:52.102Z,41.70
2017-10-12T13:42:53.210Z,42.00
2017-10-12T13:47:55.063Z,44.60
2017-10-12T13:52:56.163Z,44.60
2017-10-12T13:57:57.339Z,45.50
2017-10-12T14:02:58.441Z,45.50
2017-10-12T14:07:59.579Z,45.40
2017-10-12T14:13:00.703Z,46.00
2017-10-12T14:18:01.782Z,46.40
2017-10-12T14:23:02.890Z,46.60
2017-10-12T14:28:04.765Z,48.40
2017-10-12T14:33:06.554Z,48.40
2017-10-12T14:38:08.365Z,46.50
2017-10-12T14:43:09.485Z,46.50
2017-10-12T14:48:11.307Z,47.40
2017-10-12T14:53:12.422Z,47.50
2017-10-12T14:58:14.237Z,48.30
2017-10-12T15:03:15.353Z,48.30
2017-10-12T15:08:17.207Z,47.80
2017-10-12T15:13:18.532Z,47.80
2017-10-12T15:18:19.599Z,48.90
2017-10-12T15:23:20.806Z,49.00
2017-10-12T15:28:22.640Z,48.70
2017-10-12T15:33:23.732Z,48.70
2017-10-12T15:38:24.981Z,49.60
2017-10-12T15:43:26.084Z,50.30
2017-10-12T15:48:27.167Z,51.10
2017-10-12T15:53:28.248Z,52.80
2017-10-12T15:58:29.316Z,53.70
2017-10-12T16:03:30.421Z,54.50
2017-10-12T16:08:31.533Z,56.60
2017-10-12T16:13:32.650Z,57.50
2017-10-12T16:18:33.758Z,58.90
2017-10-12T16:23:34.827Z,60.40
2017-10-12T16:28:36.656Z,63.80
2017-10-12T16:33:37.744Z,63.00
2017-10-12T16:38:38.827Z,65.20
2017-10-12T16:43:40.650Z,67.40
2017-10-12T16:48:41.714Z,67.40
2017-10-12T16:53:43.536Z,67.20
2017-10-12T16:58:45.377Z,67.70
2017-10-12T17:03:46.469Z,67.70
2017-10-12T17:08:48.349Z,68.30
2017-10-12T17:13:50.170Z,69.20
2017-10-12T17:18:51.253Z,69.20
2017-10-12T17:23:52.352Z,69.10
2017-10-12T17:28:54.139Z,68.80
2017-10-12T17:33:55.329Z,68.30
2017-10-12T17:38:56.414Z,69.50
2017-10-12T17:43:57.499Z,70.10
2017-10-12T17:48:59.308Z,73.00
2017-10-12T17:54:00.418Z,73.00
2017-10-12T17:59:01.483Z,74.30
2017-10-12T18:04:02.562Z,74.60
2017-10-12T18:09:03.690Z,75.10
2017-10-12T18:14:04.783Z,74.60
2017-10-12T18:19:05.861Z,75.00
2017-10-12T18:24:06.957Z,76.60
2017-10-12T18:29:08.037Z,78.40
2017-10-12T18:34:12.904Z,78.70
2017-10-12T18:39:14.002Z,80.10
2017-10-12T18:44:15.100Z,81.20
2017-10-12T18:49:16.931Z,80.80
2017-10-12T18:54:18.008Z,80.50
2017-10-12T18:59:19.073Z,80.00
2017-10-12T19:04:20.185Z,78.70
2017-10-12T19:09:21.261Z,78.10
2017-10-12T19:14:22.386Z,77.90
2017-10-12T19:19:24.210Z,78.10
2017-10-12T19:24:25.309Z,78.10
2017-10-12T19:29:27.130Z,80.80
2017-10-12T19:34:28.224Z,80.80
